sensor_id;sensor_type;location;lat;lon;timestamp;P1;durP1;ratioP1;P2;durP2;ratioP2
55461;SDS011;41327;45.102;20.624;2024-03-08T00:02:16;10.32;;;5.90;;
55461;SDS011;41327;45.102;20.624;2024-03-08T00:04:41;11.77;;;5.85;;
55461;SDS011;41327;45.102;20.624;2024-03-08T00:07:07;9.38;;;6.07;;
55461;SDS011;41327;45.102;20.624;2024-03-08T00:09:33;7.22;;;4.80;;
55461;SDS011;41327;45.102;20.624;2024-03-08T00:11:58;9.25;;;5.40;;
55461;SDS011;41327;45.102;20.624;2024-03-08T00:14:24;9.02;;;5.95;;
55461;SDS011;41327;45.102;20.624;2024-03-08T00:16:49;7.63;;;4.28;;
55461;SDS011;41327;45.102;20.624;2024-03-08T00:19:15;7.95;;;5.28;;
55461;SDS011;41327;45.102;20.624;2024-03-08T00:21:40;10.57;;;6.15;;
55461;SDS011;41327;45.102;20.624;2024-03-08T00:24:07;9.10;;;5.63;;
55461;SDS011;41327;45.102;20.624;2024-03-08T00:26:32;9.77;;;5.65;;
55461;SDS011;41327;45.102;20.624;2024-03-08T00:28:58;9.32;;;5.28;;
55461;SDS011;41327;45.102;20.624;2024-03-08T00:31:24;13.88;;;6.10;;
55461;SDS011;41327;45.102;20.624;2024-03-08T00:33:50;9.95;;;6.22;;
55461;SDS011;41327;45.102;20.624;2024-03-08T00:36:16;10.02;;;5.63;;
55461;SDS011;41327;45.102;20.624;2024-03-08T00:38:41;13.48;;;6.32;;
55461;SDS011;41327;45.102;20.624;2024-03-08T00:41:07;8.63;;;5.57;;
55461;SDS011;41327;45.102;20.624;2024-03-08T00:43:32;8.73;;;5.47;;
55461;SDS011;41327;45.102;20.624;2024-03-08T00:45:58;8.55;;;5.70;;
55461;SDS011;41327;45.102;20.624;2024-03-08T00:48:23;9.75;;;5.65;;
55461;SDS011;41327;45.102;20.624;2024-03-08T00:50:49;7.65;;;4.90;;
55461;SDS011;41327;45.102;20.624;2024-03-08T00:53:14;9.23;;;6.10;;
55461;SDS011;41327;45.102;20.624;2024-03-08T00:55:40;7.97;;;5.32;;
55461;SDS011;41327;45.102;20.624;2024-03-08T00:58:05;8.82;;;5.43;;
55461;SDS011;41327;45.102;20.624;2024-03-08T01:00:31;12.23;;;5.93;;
55461;SDS011;41327;45.102;20.624;2024-03-08T01:02:56;9.82;;;5.80;;
55461;SDS011;41327;45.102;20.624;2024-03-08T01:05:22;8.40;;;4.68;;
55461;SDS011;41327;45.102;20.624;2024-03-08T01:07:49;10.15;;;5.70;;
55461;SDS011;41327;45.102;20.624;2024-03-08T01:10:15;13.32;;;5.45;;
55461;SDS011;41327;45.102;20.624;2024-03-08T01:12:41;10.52;;;5.63;;
55461;SDS011;41327;45.102;20.624;2024-03-08T01:15:08;7.75;;;4.80;;
55461;SDS011;41327;45.102;20.624;2024-03-08T01:17:35;9.18;;;5.55;;
55461;SDS011;41327;45.102;20.624;2024-03-08T01:20:01;7.10;;;4.22;;
55461;SDS011;41327;45.102;20.624;2024-03-08T01:22:27;8.60;;;5.43;;
55461;SDS011;41327;45.102;20.624;2024-03-08T01:24:55;10.02;;;5.57;;
55461;SDS011;41327;45.102;20.624;2024-03-08T01:27:21;11.20;;;6.72;;
55461;SDS011;41327;45.102;20.624;2024-03-08T01:29:46;10.00;;;6.05;;
55461;SDS011;41327;45.102;20.624;2024-03-08T01:32:12;7.45;;;4.25;;
55461;SDS011;41327;45.102;20.624;2024-03-08T01:34:37;9.77;;;5.57;;
55461;SDS011;41327;45.102;20.624;2024-03-08T01:37:03;10.52;;;5.85;;
55461;SDS011;41327;45.102;20.624;2024-03-08T01:39:28;10.60;;;6.15;;
55461;SDS011;41327;45.102;20.624;2024-03-08T01:41:54;13.68;;;6.05;;
55461;SDS011;41327;45.102;20.624;2024-03-08T01:44:19;12.70;;;6.03;;
55461;SDS011;41327;45.102;20.624;2024-03-08T01:46:45;9.15;;;5.50;;
55461;SDS011;41327;45.102;20.624;2024-03-08T01:49:11;11.25;;;6.28;;
55461;SDS011;41327;45.102;20.624;2024-03-08T01:51:37;12.07;;;6.55;;
55461;SDS011;41327;45.102;20.624;2024-03-08T01:54:05;14.30;;;7.05;;
55461;SDS011;41327;45.102;20.624;2024-03-08T01:56:31;10.60;;;5.78;;
55461;SDS011;41327;45.102;20.624;2024-03-08T01:58:57;10.98;;;7.00;;
55461;SDS011;41327;45.102;20.624;2024-03-08T02:01:23;10.65;;;6.88;;
55461;SDS011;41327;45.102;20.624;2024-03-08T02:03:50;11.00;;;7.40;;
55461;SDS011;41327;45.102;20.624;2024-03-08T02:06:15;12.00;;;6.47;;
55461;SDS011;41327;45.102;20.624;2024-03-08T02:08:45;9.50;;;5.80;;
55461;SDS011;41327;45.102;20.624;2024-03-08T02:11:11;11.65;;;6.75;;
55461;SDS011;41327;45.102;20.624;2024-03-08T02:13:36;13.10;;;7.25;;
55461;SDS011;41327;45.102;20.624;2024-03-08T02:16:02;12.70;;;7.07;;
55461;SDS011;41327;45.102;20.624;2024-03-08T02:18:31;16.58;;;7.80;;
55461;SDS011;41327;45.102;20.624;2024-03-08T02:20:59;13.18;;;6.75;;
55461;SDS011;41327;45.102;20.624;2024-03-08T02:23:26;12.45;;;6.72;;
55461;SDS011;41327;45.102;20.624;2024-03-08T02:25:52;12.93;;;7.00;;
55461;SDS011;41327;45.102;20.624;2024-03-08T02:28:18;15.80;;;7.95;;
55461;SDS011;41327;45.102;20.624;2024-03-08T02:30:44;9.32;;;5.63;;
55461;SDS011;41327;45.102;20.624;2024-03-08T02:33:17;12.32;;;6.70;;
55461;SDS011;41327;45.102;20.624;2024-03-08T02:35:46;17.60;;;7.93;;
55461;SDS011;41327;45.102;20.624;2024-03-08T02:38:14;12.35;;;7.70;;
55461;SDS011;41327;45.102;20.624;2024-03-08T02:40:44;17.48;;;8.57;;
55461;SDS011;41327;45.102;20.624;2024-03-08T02:43:11;17.48;;;8.80;;
55461;SDS011;41327;45.102;20.624;2024-03-08T02:45:37;17.13;;;8.90;;
55461;SDS011;41327;45.102;20.624;2024-03-08T02:48:03;18.40;;;8.93;;
55461;SDS011;41327;45.102;20.624;2024-03-08T02:50:31;12.98;;;7.20;;
55461;SDS011;41327;45.102;20.624;2024-03-08T02:52:57;19.25;;;8.70;;
55461;SDS011;41327;45.102;20.624;2024-03-08T02:55:23;16.23;;;9.60;;
55461;SDS011;41327;45.102;20.624;2024-03-08T02:57:50;16.17;;;7.88;;
55461;SDS011;41327;45.102;20.624;2024-03-08T03:00:16;20.20;;;8.52;;
55461;SDS011;41327;45.102;20.624;2024-03-08T03:02:44;14.88;;;8.38;;
55461;SDS011;41327;45.102;20.624;2024-03-08T03:05:10;20.75;;;9.93;;
55461;SDS011;41327;45.102;20.624;2024-03-08T03:07:36;16.92;;;9.63;;
55461;SDS011;41327;45.102;20.624;2024-03-08T03:10:02;19.92;;;9.38;;
55461;SDS011;41327;45.102;20.624;2024-03-08T03:12:28;17.40;;;7.55;;
55461;SDS011;41327;45.102;20.624;2024-03-08T03:14:54;18.80;;;10.20;;
55461;SDS011;41327;45.102;20.624;2024-03-08T03:17:21;15.35;;;8.10;;
55461;SDS011;41327;45.102;20.624;2024-03-08T03:19:48;14.73;;;7.25;;
55461;SDS011;41327;45.102;20.624;2024-03-08T03:22:13;18.98;;;9.57;;
55461;SDS011;41327;45.102;20.624;2024-03-08T03:24:40;13.70;;;8.05;;
55461;SDS011;41327;45.102;20.624;2024-03-08T03:27:07;18.08;;;9.13;;
55461;SDS011;41327;45.102;20.624;2024-03-08T03:29:42;20.15;;;10.73;;
55461;SDS011;41327;45.102;20.624;2024-03-08T03:32:11;17.45;;;9.45;;
55461;SDS011;41327;45.102;20.624;2024-03-08T03:34:37;15.18;;;7.70;;
55461;SDS011;41327;45.102;20.624;2024-03-08T03:37:03;22.13;;;9.30;;
55461;SDS011;41327;45.102;20.624;2024-03-08T03:39:29;17.95;;;9.55;;
55461;SDS011;41327;45.102;20.624;2024-03-08T03:41:59;18.40;;;8.40;;
55461;SDS011;41327;45.102;20.624;2024-03-08T03:44:27;17.42;;;9.60;;
55461;SDS011;41327;45.102;20.624;2024-03-08T03:46:53;22.05;;;9.73;;
55461;SDS011;41327;45.102;20.624;2024-03-08T03:49:19;17.95;;;8.52;;
55461;SDS011;41327;45.102;20.624;2024-03-08T03:51:44;17.80;;;9.13;;
55461;SDS011;41327;45.102;20.624;2024-03-08T03:54:10;15.32;;;7.22;;
55461;SDS011;41327;45.102;20.624;2024-03-08T03:56:36;15.32;;;7.93;;
55461;SDS011;41327;45.102;20.624;2024-03-08T03:59:02;18.80;;;9.27;;
55461;SDS011;41327;45.102;20.624;2024-03-08T04:01:27;15.43;;;8.75;;
55461;SDS011;41327;45.102;20.624;2024-03-08T04:03:54;14.68;;;8.23;;
55461;SDS011;41327;45.102;20.624;2024-03-08T04:06:20;17.88;;;9.05;;
55461;SDS011;41327;45.102;20.624;2024-03-08T04:08:45;15.20;;;8.10;;
55461;SDS011;41327;45.102;20.624;2024-03-08T04:11:11;18.13;;;8.82;;
55461;SDS011;41327;45.102;20.624;2024-03-08T04:13:36;15.82;;;8.35;;
55461;SDS011;41327;45.102;20.624;2024-03-08T04:16:02;16.33;;;7.70;;
55461;SDS011;41327;45.102;20.624;2024-03-08T04:18:31;16.92;;;8.18;;
55461;SDS011;41327;45.102;20.624;2024-03-08T04:20:57;14.45;;;7.60;;
55461;SDS011;41327;45.102;20.624;2024-03-08T04:23:22;12.43;;;6.80;;
55461;SDS011;41327;45.102;20.624;2024-03-08T04:25:48;15.20;;;8.00;;
55461;SDS011;41327;45.102;20.624;2024-03-08T04:28:13;19.45;;;8.82;;
55461;SDS011;41327;45.102;20.624;2024-03-08T04:30:39;15.88;;;7.55;;
55461;SDS011;41327;45.102;20.624;2024-03-08T04:33:05;15.15;;;7.57;;
55461;SDS011;41327;45.102;20.624;2024-03-08T04:35:32;16.25;;;8.10;;
55461;SDS011;41327;45.102;20.624;2024-03-08T04:37:58;14.68;;;7.95;;
55461;SDS011;41327;45.102;20.624;2024-03-08T04:40:23;15.35;;;8.25;;
55461;SDS011;41327;45.102;20.624;2024-03-08T04:42:49;16.52;;;7.68;;
55461;SDS011;41327;45.102;20.624;2024-03-08T04:45:16;11.73;;;6.65;;
55461;SDS011;41327;45.102;20.624;2024-03-08T04:47:42;18.17;;;7.85;;
55461;SDS011;41327;45.102;20.624;2024-03-08T04:50:09;15.55;;;7.82;;
55461;SDS011;41327;45.102;20.624;2024-03-08T04:52:35;14.38;;;7.53;;
55461;SDS011;41327;45.102;20.624;2024-03-08T04:55:03;18.58;;;7.88;;
55461;SDS011;41327;45.102;20.624;2024-03-08T04:57:32;16.73;;;8.20;;
55461;SDS011;41327;45.102;20.624;2024-03-08T04:59:57;13.75;;;7.93;;
55461;SDS011;41327;45.102;20.624;2024-03-08T05:02:24;14.30;;;7.15;;
55461;SDS011;41327;45.102;20.624;2024-03-08T05:04:49;14.43;;;8.43;;
55461;SDS011;41327;45.102;20.624;2024-03-08T05:07:15;18.33;;;8.43;;
55461;SDS011;41327;45.102;20.624;2024-03-08T05:09:41;16.67;;;8.20;;
55461;SDS011;41327;45.102;20.624;2024-03-08T05:12:07;13.75;;;7.38;;
55461;SDS011;41327;45.102;20.624;2024-03-08T05:14:33;15.10;;;7.95;;
55461;SDS011;41327;45.102;20.624;2024-03-08T05:16:59;15.27;;;8.15;;
55461;SDS011;41327;45.102;20.624;2024-03-08T05:19:26;17.17;;;7.40;;
55461;SDS011;41327;45.102;20.624;2024-03-08T05:21:51;13.73;;;7.78;;
55461;SDS011;41327;45.102;20.624;2024-03-08T05:24:17;17.63;;;8.98;;
55461;SDS011;41327;45.102;20.624;2024-03-08T05:26:43;15.45;;;8.15;;
55461;SDS011;41327;45.102;20.624;2024-03-08T05:29:08;15.38;;;8.38;;
55461;SDS011;41327;45.102;20.624;2024-03-08T05:32:07;14.85;;;7.18;;
55461;SDS011;41327;45.102;20.624;2024-03-08T05:34:27;16.67;;;7.60;;
55461;SDS011;41327;45.102;20.624;2024-03-08T05:36:54;19.27;;;9.02;;
55461;SDS011;41327;45.102;20.624;2024-03-08T05:39:19;17.42;;;8.48;;
55461;SDS011;41327;45.102;20.624;2024-03-08T05:41:45;15.57;;;7.72;;
55461;SDS011;41327;45.102;20.624;2024-03-08T05:44:11;14.45;;;8.13;;
55461;SDS011;41327;45.102;20.624;2024-03-08T05:46:37;12.57;;;8.05;;
55461;SDS011;41327;45.102;20.624;2024-03-08T05:49:03;15.13;;;8.65;;
55461;SDS011;41327;45.102;20.624;2024-03-08T05:51:35;15.38;;;7.28;;
55461;SDS011;41327;45.102;20.624;2024-03-08T05:54:05;15.82;;;8.50;;
55461;SDS011;41327;45.102;20.624;2024-03-08T05:56:35;11.90;;;6.78;;
55461;SDS011;41327;45.102;20.624;2024-03-08T05:59:02;14.23;;;8.48;;
55461;SDS011;41327;45.102;20.624;2024-03-08T06:01:28;13.18;;;7.25;;
55461;SDS011;41327;45.102;20.624;2024-03-08T06:03:54;15.18;;;8.35;;
55461;SDS011;41327;45.102;20.624;2024-03-08T06:06:22;11.18;;;6.68;;
55461;SDS011;41327;45.102;20.624;2024-03-08T06:08:48;13.30;;;7.22;;
55461;SDS011;41327;45.102;20.624;2024-03-08T06:11:15;11.13;;;6.03;;
55461;SDS011;41327;45.102;20.624;2024-03-08T06:13:42;9.00;;;5.18;;
55461;SDS011;41327;45.102;20.624;2024-03-08T06:16:08;11.77;;;7.13;;
55461;SDS011;41327;45.102;20.624;2024-03-08T06:18:34;14.43;;;7.68;;
55461;SDS011;41327;45.102;20.624;2024-03-08T06:21:04;15.52;;;7.63;;
55461;SDS011;41327;45.102;20.624;2024-03-08T06:23:31;13.82;;;8.00;;
55461;SDS011;41327;45.102;20.624;2024-03-08T06:25:57;14.77;;;8.52;;
55461;SDS011;41327;45.102;20.624;2024-03-08T06:28:23;12.50;;;6.35;;
55461;SDS011;41327;45.102;20.624;2024-03-08T06:30:50;16.15;;;7.90;;
55461;SDS011;41327;45.102;20.624;2024-03-08T06:33:17;15.75;;;7.68;;
55461;SDS011;41327;45.102;20.624;2024-03-08T06:35:43;11.80;;;6.63;;
55461;SDS011;41327;45.102;20.624;2024-03-08T06:38:08;10.90;;;6.65;;
55461;SDS011;41327;45.102;20.624;2024-03-08T06:40:34;15.05;;;7.60;;
55461;SDS011;41327;45.102;20.624;2024-03-08T06:42:59;15.55;;;7.60;;
55461;SDS011;41327;45.102;20.624;2024-03-08T06:45:25;15.10;;;6.97;;
55461;SDS011;41327;45.102;20.624;2024-03-08T06:47:51;14.43;;;8.05;;
55461;SDS011;41327;45.102;20.624;2024-03-08T06:50:16;16.77;;;8.95;;
55461;SDS011;41327;45.102;20.624;2024-03-08T06:52:42;16.83;;;6.50;;
55461;SDS011;41327;45.102;20.624;2024-03-08T06:55:09;12.85;;;7.20;;
55461;SDS011;41327;45.102;20.624;2024-03-08T06:57:38;15.25;;;7.78;;
55461;SDS011;41327;45.102;20.624;2024-03-08T07:00:06;15.68;;;6.97;;
55461;SDS011;41327;45.102;20.624;2024-03-08T07:02:37;12.93;;;6.18;;
55461;SDS011;41327;45.102;20.624;2024-03-08T07:05:04;16.77;;;7.57;;
55461;SDS011;41327;45.102;20.624;2024-03-08T07:07:30;15.73;;;7.82;;
55461;SDS011;41327;45.102;20.624;2024-03-08T07:09:57;15.27;;;7.38;;
55461;SDS011;41327;45.102;20.624;2024-03-08T07:12:22;14.20;;;7.50;;
55461;SDS011;41327;45.102;20.624;2024-03-08T07:14:48;12.18;;;6.82;;
55461;SDS011;41327;45.102;20.624;2024-03-08T07:17:14;14.82;;;8.10;;
55461;SDS011;41327;45.102;20.624;2024-03-08T07:19:40;17.60;;;8.25;;
55461;SDS011;41327;45.102;20.624;2024-03-08T07:22:05;18.95;;;8.88;;
55461;SDS011;41327;45.102;20.624;2024-03-08T07:24:34;16.85;;;8.60;;
55461;SDS011;41327;45.102;20.624;2024-03-08T07:27:12;18.95;;;8.55;;
55461;SDS011;41327;45.102;20.624;2024-03-08T07:29:38;17.23;;;9.15;;
55461;SDS011;41327;45.102;20.624;2024-03-08T07:32:03;16.10;;;8.95;;
55461;SDS011;41327;45.102;20.624;2024-03-08T07:34:49;14.68;;;7.03;;
55461;SDS011;41327;45.102;20.624;2024-03-08T07:37:16;16.30;;;9.02;;
55461;SDS011;41327;45.102;20.624;2024-03-08T07:39:42;14.68;;;7.85;;
55461;SDS011;41327;45.102;20.624;2024-03-08T07:42:08;19.02;;;8.18;;
55461;SDS011;41327;45.102;20.624;2024-03-08T07:44:35;27.90;;;10.35;;
55461;SDS011;41327;45.102;20.624;2024-03-08T07:47:00;18.77;;;9.00;;
55461;SDS011;41327;45.102;20.624;2024-03-08T07:49:26;20.23;;;9.02;;
55461;SDS011;41327;45.102;20.624;2024-03-08T07:51:51;22.33;;;10.13;;
55461;SDS011;41327;45.102;20.624;2024-03-08T07:54:17;19.67;;;9.43;;
55461;SDS011;41327;45.102;20.624;2024-03-08T07:56:43;23.33;;;9.98;;
55461;SDS011;41327;45.102;20.624;2024-03-08T07:59:08;17.40;;;9.60;;
55461;SDS011;41327;45.102;20.624;2024-03-08T08:01:34;21.23;;;9.85;;
55461;SDS011;41327;45.102;20.624;2024-03-08T08:03:59;19.55;;;8.75;;
55461;SDS011;41327;45.102;20.624;2024-03-08T08:06:26;23.00;;;9.10;;
55461;SDS011;41327;45.102;20.624;2024-03-08T08:08:52;18.13;;;9.05;;
55461;SDS011;41327;45.102;20.624;2024-03-08T08:11:18;22.08;;;9.80;;
55461;SDS011;41327;45.102;20.624;2024-03-08T08:13:45;17.27;;;8.73;;
55461;SDS011;41327;45.102;20.624;2024-03-08T08:16:10;18.88;;;8.38;;
55461;SDS011;41327;45.102;20.624;2024-03-08T08:18:38;17.63;;;8.15;;
55461;SDS011;41327;45.102;20.624;2024-03-08T08:21:04;14.13;;;7.85;;
55461;SDS011;41327;45.102;20.624;2024-03-08T08:23:32;16.67;;;7.85;;
55461;SDS011;41327;45.102;20.624;2024-03-08T08:25:57;13.75;;;7.50;;
55461;SDS011;41327;45.102;20.624;2024-03-08T08:28:24;19.10;;;8.27;;
55461;SDS011;41327;45.102;20.624;2024-03-08T08:30:50;14.48;;;6.85;;
55461;SDS011;41327;45.102;20.624;2024-03-08T08:33:15;18.58;;;7.55;;
55461;SDS011;41327;45.102;20.624;2024-03-08T08:35:41;13.73;;;7.72;;
55461;SDS011;41327;45.102;20.624;2024-03-08T08:38:07;13.50;;;7.70;;
55461;SDS011;41327;45.102;20.624;2024-03-08T08:40:34;10.60;;;6.88;;
55461;SDS011;41327;45.102;20.624;2024-03-08T08:43:01;16.90;;;8.38;;
55461;SDS011;41327;45.102;20.624;2024-03-08T08:45:29;15.18;;;8.15;;
55461;SDS011;41327;45.102;20.624;2024-03-08T08:47:58;12.02;;;6.53;;
55461;SDS011;41327;45.102;20.624;2024-03-08T08:50:25;15.68;;;7.88;;
55461;SDS011;41327;45.102;20.624;2024-03-08T08:52:52;15.02;;;7.68;;
55461;SDS011;41327;45.102;20.624;2024-03-08T08:55:18;20.25;;;8.38;;
55461;SDS011;41327;45.102;20.624;2024-03-08T08:57:46;15.85;;;7.43;;
55461;SDS011;41327;45.102;20.624;2024-03-08T09:00:15;15.15;;;7.45;;
55461;SDS011;41327;45.102;20.624;2024-03-08T09:02:41;11.52;;;6.97;;
55461;SDS011;41327;45.102;20.624;2024-03-08T09:05:07;17.20;;;8.00;;
55461;SDS011;41327;45.102;20.624;2024-03-08T09:07:33;13.05;;;7.43;;
55461;SDS011;41327;45.102;20.624;2024-03-08T09:09:59;11.50;;;6.07;;
55461;SDS011;41327;45.102;20.624;2024-03-08T09:12:26;13.70;;;6.57;;
55461;SDS011;41327;45.102;20.624;2024-03-08T09:14:51;14.10;;;8.05;;
55461;SDS011;41327;45.102;20.624;2024-03-08T09:17:17;8.25;;;5.35;;
55461;SDS011;41327;45.102;20.624;2024-03-08T09:19:47;17.35;;;6.95;;
55461;SDS011;41327;45.102;20.624;2024-03-08T09:22:13;14.13;;;7.05;;
55461;SDS011;41327;45.102;20.624;2024-03-08T09:24:39;10.55;;;6.57;;
55461;SDS011;41327;45.102;20.624;2024-03-08T09:27:05;10.93;;;6.05;;
55461;SDS011;41327;45.102;20.624;2024-03-08T09:29:30;15.52;;;7.65;;
55461;SDS011;41327;45.102;20.624;2024-03-08T09:31:56;19.05;;;7.82;;
55461;SDS011;41327;45.102;20.624;2024-03-08T09:34:22;14.90;;;8.23;;
55461;SDS011;41327;45.102;20.624;2024-03-08T09:36:48;17.92;;;8.38;;
55461;SDS011;41327;45.102;20.624;2024-03-08T09:39:15;16.92;;;8.70;;
55461;SDS011;41327;45.102;20.624;2024-03-08T09:41:45;14.50;;;7.88;;
55461;SDS011;41327;45.102;20.624;2024-03-08T09:44:13;15.45;;;8.07;;
55461;SDS011;41327;45.102;20.624;2024-03-08T09:46:39;27.63;;;8.40;;
55461;SDS011;41327;45.102;20.624;2024-03-08T09:49:05;13.98;;;7.65;;
55461;SDS011;41327;45.102;20.624;2024-03-08T09:51:33;19.33;;;8.15;;
55461;SDS011;41327;45.102;20.624;2024-03-08T09:54:00;14.30;;;6.07;;
55461;SDS011;41327;45.102;20.624;2024-03-08T09:56:29;12.77;;;6.28;;
55461;SDS011;41327;45.102;20.624;2024-03-08T09:58:59;12.02;;;7.30;;
55461;SDS011;41327;45.102;20.624;2024-03-08T10:01:30;19.10;;;6.93;;
55461;SDS011;41327;45.102;20.624;2024-03-08T10:03:57;15.18;;;7.15;;
55461;SDS011;41327;45.102;20.624;2024-03-08T10:06:23;12.65;;;6.65;;
55461;SDS011;41327;45.102;20.624;2024-03-08T10:08:48;20.65;;;8.82;;
55461;SDS011;41327;45.102;20.624;2024-03-08T10:11:17;20.33;;;9.07;;
55461;SDS011;41327;45.102;20.624;2024-03-08T10:13:43;22.45;;;8.45;;
55461;SDS011;41327;45.102;20.624;2024-03-08T10:16:11;30.20;;;11.80;;
55461;SDS011;41327;45.102;20.624;2024-03-08T10:18:37;20.42;;;8.30;;
55461;SDS011;41327;45.102;20.624;2024-03-08T10:21:07;27.50;;;11.80;;
55461;SDS011;41327;45.102;20.624;2024-03-08T10:23:35;21.10;;;9.00;;
55461;SDS011;41327;45.102;20.624;2024-03-08T10:26:13;20.90;;;10.00;;
55461;SDS011;41327;45.102;20.624;2024-03-08T10:28:46;26.10;;;11.40;;
55461;SDS011;41327;45.102;20.624;2024-03-08T10:31:13;15.52;;;7.72;;
55461;SDS011;41327;45.102;20.624;2024-03-08T10:33:42;24.45;;;9.10;;
55461;SDS011;41327;45.102;20.624;2024-03-08T10:36:07;20.02;;;10.25;;
55461;SDS011;41327;45.102;20.624;2024-03-08T10:38:37;26.30;;;10.50;;
55461;SDS011;41327;45.102;20.624;2024-03-08T10:41:07;18.05;;;9.27;;
55461;SDS011;41327;45.102;20.624;2024-03-08T10:49:16;15.70;;;7.63;;
55461;SDS011;41327;45.102;20.624;2024-03-08T10:51:45;13.50;;;7.15;;
55461;SDS011;41327;45.102;20.624;2024-03-08T10:54:12;18.67;;;7.13;;
55461;SDS011;41327;45.102;20.624;2024-03-08T10:56:40;16.30;;;8.82;;
55461;SDS011;41327;45.102;20.624;2024-03-08T10:59:07;17.67;;;8.85;;
55461;SDS011;41327;45.102;20.624;2024-03-08T11:01:33;15.80;;;8.13;;
55461;SDS011;41327;45.102;20.624;2024-03-08T11:03:59;20.70;;;10.85;;
55461;SDS011;41327;45.102;20.624;2024-03-08T11:09:03;20.02;;;9.95;;
55461;SDS011;41327;45.102;20.624;2024-03-08T11:11:38;20.10;;;9.55;;
55461;SDS011;41327;45.102;20.624;2024-03-08T11:14:08;17.08;;;8.60;;
55461;SDS011;41327;45.102;20.624;2024-03-08T11:17:09;13.45;;;8.65;;
55461;SDS011;41327;45.102;20.624;2024-03-08T11:19:34;13.27;;;6.65;;
55461;SDS011;41327;45.102;20.624;2024-03-08T11:22:03;13.63;;;7.18;;
55461;SDS011;41327;45.102;20.624;2024-03-08T11:24:36;13.48;;;7.20;;
55461;SDS011;41327;45.102;20.624;2024-03-08T11:27:03;13.50;;;7.68;;
55461;SDS011;41327;45.102;20.624;2024-03-08T11:29:32;12.20;;;6.20;;
55461;SDS011;41327;45.102;20.624;2024-03-08T11:32:11;11.82;;;5.10;;
55461;SDS011;41327;45.102;20.624;2024-03-08T11:34:41;9.75;;;5.90;;
55461;SDS011;41327;45.102;20.624;2024-03-08T11:37:14;12.40;;;6.30;;
55461;SDS011;41327;45.102;20.624;2024-03-08T11:39:45;21.38;;;10.82;;
55461;SDS011;41327;45.102;20.624;2024-03-08T11:42:18;11.68;;;6.28;;
55461;SDS011;41327;45.102;20.624;2024-03-08T11:44:47;13.15;;;7.00;;
55461;SDS011;41327;45.102;20.624;2024-03-08T11:47:14;11.73;;;5.85;;
55461;SDS011;41327;45.102;20.624;2024-03-08T11:49:40;16.90;;;7.05;;
55461;SDS011;41327;45.102;20.624;2024-03-08T11:52:12;11.77;;;6.47;;
55461;SDS011;41327;45.102;20.624;2024-03-08T11:54:38;10.18;;;6.10;;
55461;SDS011;41327;45.102;20.624;2024-03-08T11:57:05;16.20;;;8.15;;
55461;SDS011;41327;45.102;20.624;2024-03-08T11:59:30;13.25;;;6.35;;
55461;SDS011;41327;45.102;20.624;2024-03-08T12:02:06;13.20;;;6.32;;
55461;SDS011;41327;45.102;20.624;2024-03-08T12:04:36;11.63;;;6.43;;
55461;SDS011;41327;45.102;20.624;2024-03-08T12:07:02;13.48;;;7.40;;
55461;SDS011;41327;45.102;20.624;2024-03-08T12:09:33;10.70;;;6.80;;
55461;SDS011;41327;45.102;20.624;2024-03-08T12:12:01;11.13;;;6.18;;
55461;SDS011;41327;45.102;20.624;2024-03-08T12:14:29;13.20;;;6.80;;
55461;SDS011;41327;45.102;20.624;2024-03-08T12:16:55;12.50;;;7.60;;
55461;SDS011;41327;45.102;20.624;2024-03-08T12:19:20;10.75;;;6.53;;
55461;SDS011;41327;45.102;20.624;2024-03-08T12:21:46;10.80;;;5.72;;
55461;SDS011;41327;45.102;20.624;2024-03-08T12:24:17;9.85;;;6.10;;
55461;SDS011;41327;45.102;20.624;2024-03-08T12:26:46;9.70;;;5.93;;
55461;SDS011;41327;45.102;20.624;2024-03-08T12:29:20;9.15;;;6.63;;
55461;SDS011;41327;45.102;20.624;2024-03-08T12:31:57;9.25;;;5.88;;
55461;SDS011;41327;45.102;20.624;2024-03-08T12:34:25;11.95;;;6.53;;
55461;SDS011;41327;45.102;20.624;2024-03-08T12:36:53;11.32;;;5.88;;
55461;SDS011;41327;45.102;20.624;2024-03-08T12:39:19;8.60;;;5.63;;
55461;SDS011;41327;45.102;20.624;2024-03-08T12:41:52;13.88;;;6.97;;
55461;SDS011;41327;45.102;20.624;2024-03-08T12:44:18;15.85;;;8.25;;
55461;SDS011;41327;45.102;20.624;2024-03-08T12:46:46;14.73;;;8.23;;
55461;SDS011;41327;45.102;20.624;2024-03-08T12:49:13;10.65;;;6.40;;
55461;SDS011;41327;45.102;20.624;2024-03-08T12:51:42;11.25;;;6.53;;
55461;SDS011;41327;45.102;20.624;2024-03-08T12:54:11;12.98;;;6.38;;
55461;SDS011;41327;45.102;20.624;2024-03-08T12:56:36;11.77;;;6.05;;
55461;SDS011;41327;45.102;20.624;2024-03-08T12:59:05;12.40;;;6.38;;
55461;SDS011;41327;45.102;20.624;2024-03-08T13:01:34;13.02;;;6.50;;
55461;SDS011;41327;45.102;20.624;2024-03-08T13:04:02;10.55;;;5.88;;
55461;SDS011;41327;45.102;20.624;2024-03-08T13:06:28;9.02;;;4.95;;
55461;SDS011;41327;45.102;20.624;2024-03-08T13:08:56;11.27;;;5.97;;
55461;SDS011;41327;45.102;20.624;2024-03-08T13:11:23;12.57;;;6.53;;
55461;SDS011;41327;45.102;20.624;2024-03-08T13:13:50;15.25;;;7.80;;
55461;SDS011;41327;45.102;20.624;2024-03-08T13:16:17;14.85;;;7.85;;
55461;SDS011;41327;45.102;20.624;2024-03-08T13:18:44;22.52;;;11.27;;
55461;SDS011;41327;45.102;20.624;2024-03-08T13:21:11;30.17;;;14.30;;
55461;SDS011;41327;45.102;20.624;2024-03-08T13:23:40;19.00;;;10.13;;
55461;SDS011;41327;45.102;20.624;2024-03-08T13:26:06;12.75;;;6.90;;
55461;SDS011;41327;45.102;20.624;2024-03-08T13:28:32;11.38;;;6.40;;
55461;SDS011;41327;45.102;20.624;2024-03-08T13:31:03;13.55;;;5.97;;
55461;SDS011;41327;45.102;20.624;2024-03-08T13:33:37;10.40;;;6.07;;
55461;SDS011;41327;45.102;20.624;2024-03-08T13:36:05;9.73;;;5.93;;
55461;SDS011;41327;45.102;20.624;2024-03-08T13:38:39;11.18;;;5.93;;
55461;SDS011;41327;45.102;20.624;2024-03-08T13:41:07;9.57;;;6.10;;
55461;SDS011;41327;45.102;20.624;2024-03-08T13:43:33;9.48;;;5.90;;
55461;SDS011;41327;45.102;20.624;2024-03-08T13:46:01;11.00;;;7.05;;
55461;SDS011;41327;45.102;20.624;2024-03-08T13:48:32;13.43;;;7.03;;
55461;SDS011;41327;45.102;20.624;2024-03-08T13:50:58;10.68;;;6.10;;
55461;SDS011;41327;45.102;20.624;2024-03-08T13:53:23;10.27;;;6.00;;
55461;SDS011;41327;45.102;20.624;2024-03-08T13:55:49;10.43;;;6.05;;
55461;SDS011;41327;45.102;20.624;2024-03-08T13:58:15;9.95;;;6.10;;
55461;SDS011;41327;45.102;20.624;2024-03-08T14:00:41;15.18;;;6.45;;
55461;SDS011;41327;45.102;20.624;2024-03-08T14:03:09;15.60;;;8.10;;
55461;SDS011;41327;45.102;20.624;2024-03-08T14:05:38;14.00;;;6.82;;
55461;SDS011;41327;45.102;20.624;2024-03-08T14:08:05;10.45;;;6.50;;
55461;SDS011;41327;45.102;20.624;2024-03-08T14:10:33;21.88;;;10.30;;
55461;SDS011;41327;45.102;20.624;2024-03-08T14:12:59;14.70;;;7.63;;
55461;SDS011;41327;45.102;20.624;2024-03-08T14:15:26;12.82;;;7.30;;
55461;SDS011;41327;45.102;20.624;2024-03-08T14:17:54;17.60;;;7.88;;
55461;SDS011;41327;45.102;20.624;2024-03-08T14:20:20;14.40;;;8.25;;
55461;SDS011;41327;45.102;20.624;2024-03-08T14:22:51;17.30;;;10.07;;
55461;SDS011;41327;45.102;20.624;2024-03-08T14:25:19;22.58;;;13.88;;
55461;SDS011;41327;45.102;20.624;2024-03-08T14:27:45;14.20;;;8.75;;
55461;SDS011;41327;45.102;20.624;2024-03-08T14:30:11;36.25;;;18.63;;
55461;SDS011;41327;45.102;20.624;2024-03-08T14:32:37;21.30;;;10.27;;